Time;durP1;ratioP1;P1;durP2;ratioP2;P2;SDS_P1;SDS_P2;PMS_P1;PMS_P2;Temp;Humidity;BMP_temperature;BMP_pressure;BME280_temperature;BME280_humidity;BME280_pressure;Samples;Min_cycle;Max_cycle;Signal;HPM_P1;HPM_P2
2023/09/27 00:01:05;;;;;;;5.32;4.82;;;;;;;;;;5081174;28;20780;-64
2023/09/27 00:03:34;;;;;;;6.35;5.00;;;;;;;;;;5079601;28;20480;-63
2023/09/27 00:06:01;;;;;;;6.05;5.20;;;;;;;;;;5080949;28;20417;-64
2023/09/27 00:08:28;;;;;;;7.37;5.47;;;;;;;;;;5081766;28;20402;-63
2023/09/27 00:10:55;;;;;;;5.70;5.18;;;;;;;;;;5079461;28;20411;-63
2023/09/27 00:13:22;;;;;;;8.73;6.90;;;;;;;;;;5079883;28;20467;-63
2023/09/27 00:15:49;;;;;;;7.88;6.28;;;;;;;;;;5078583;28;20407;-63
2023/09/27 00:18:16;;;;;;;7.97;5.78;;;;;;;;;;5081107;28;20397;-64
2023/09/27 00:20:44;;;;;;;9.18;6.10;;;;;;;;;;5081604;28;20803;-63
2023/09/27 00:23:11;;;;;;;9.97;5.90;;;;;;;;;;5077593;28;20403;-62
2023/09/27 00:25:38;;;;;;;7.88;5.88;;;;;;;;;;5077952;28;20424;-63
2023/09/27 00:28:05;;;;;;;7.47;6.13;;;;;;;;;;5081487;28;20792;-63
2023/09/27 00:30:32;;;;;;;6.75;5.43;;;;;;;;;;5079907;28;20409;-63
2023/09/27 00:33:00;;;;;;;6.18;5.18;;;;;;;;;;5079023;28;20759;-64
2023/09/27 00:35:27;;;;;;;7.47;5.57;;;;;;;;;;5080346;28;20437;-62
2023/09/27 00:37:55;;;;;;;5.78;5.15;;;;;;;;;;5081404;28;20398;-63
2023/09/27 00:40:24;;;;;;;6.10;5.38;;;;;;;;;;5070227;28;20439;-64
2023/09/27 00:42:51;;;;;;;5.95;5.30;;;;;;;;;;5070271;28;20418;-62
2023/09/27 00:45:19;;;;;;;6.43;5.45;;;;;;;;;;5078833;28;20407;-63
2023/09/27 00:47:47;;;;;;;8.68;5.60;;;;;;;;;;5079841;28;20423;-62
2023/09/27 00:50:14;;;;;;;8.63;5.20;;;;;;;;;;5081269;28;20485;-63
2023/09/27 00:52:42;;;;;;;7.13;5.00;;;;;;;;;;5079690;28;20890;-63
2023/09/27 00:55:11;;;;;;;6.03;5.43;;;;;;;;;;5081211;28;20410;-63
2023/09/27 00:57:38;;;;;;;8.70;5.25;;;;;;;;;;5081732;28;20407;-64
2023/09/27 01:00:09;;;;;;;6.90;4.93;;;;;;;;;;5084026;28;20945;-63
2023/09/27 01:02:36;;;;;;;6.50;5.00;;;;;;;;;;5082180;28;20834;-63
2023/09/27 01:05:03;;;;;;;6.47;5.20;;;;;;;;;;5084620;28;20414;-63
2023/09/27 01:07:31;;;;;;;6.45;5.15;;;;;;;;;;5081864;28;20431;-63
2023/09/27 01:09:58;;;;;;;7.20;5.23;;;;;;;;;;5084846;28;20414;-63
2023/09/27 01:12:26;;;;;;;7.45;5.70;;;;;;;;;;5081413;28;20477;-63
2023/09/27 01:14:53;;;;;;;7.95;5.80;;;;;;;;;;5084557;28;20625;-63
2023/09/27 01:17:20;;;;;;;5.88;5.28;;;;;;;;;;5080658;28;20404;-63
2023/09/27 01:19:47;;;;;;;5.57;5.03;;;;;;;;;;5084408;28;20474;-64
2023/09/27 01:22:14;;;;;;;5.90;5.30;;;;;;;;;;5081525;28;20882;-64
2023/09/27 01:24:43;;;;;;;8.60;5.50;;;;;;;;;;5085829;28;20409;-63
2023/09/27 01:27:11;;;;;;;6.63;5.20;;;;;;;;;;5081219;28;20482;-62
2023/09/27 01:29:38;;;;;;;6.30;5.15;;;;;;;;;;5080994;28;20472;-61
2023/09/27 01:32:05;;;;;;;7.82;5.20;;;;;;;;;;5079395;28;20419;-64
2023/09/27 01:34:32;;;;;;;7.47;5.60;;;;;;;;;;5078625;28;20450;-63
2023/09/27 01:37:00;;;;;;;6.45;5.50;;;;;;;;;;5078896;28;20438;-63
2023/09/27 01:39:30;;;;;;;7.30;5.47;;;;;;;;;;5080594;28;20412;-63
2023/09/27 01:41:58;;;;;;;6.20;5.60;;;;;;;;;;5084572;28;20423;-64
2023/09/27 01:44:25;;;;;;;7.82;5.75;;;;;;;;;;5082567;28;20469;-63
2023/09/27 01:46:53;;;;;;;6.65;5.50;;;;;;;;;;5084283;28;20421;-62
2023/09/27 01:49:20;;;;;;;7.13;5.65;;;;;;;;;;5082954;28;20465;-63
2023/09/27 01:51:49;;;;;;;7.30;5.90;;;;;;;;;;5081979;28;20407;-63
2023/09/27 01:54:16;;;;;;;6.70;5.40;;;;;;;;;;5085804;28;20416;-64
2023/09/27 01:56:43;;;;;;;8.25;6.03;;;;;;;;;;5085291;28;20921;-63
2023/09/27 01:59:11;;;;;;;7.40;5.80;;;;;;;;;;5081514;28;20487;-63
2023/09/27 02:01:38;;;;;;;6.70;5.60;;;;;;;;;;5082507;28;20415;-63
2023/09/27 02:04:05;;;;;;;7.33;5.60;;;;;;;;;;5083987;28;20943;-63
2023/09/27 02:06:32;;;;;;;6.90;5.57;;;;;;;;;;5082551;28;20404;-63
2023/09/27 02:08:59;;;;;;;6.43;5.70;;;;;;;;;;5081380;28;20415;-64
2023/09/27 02:11:26;;;;;;;6.20;5.60;;;;;;;;;;5081829;28;20824;-63
2023/09/27 02:13:53;;;;;;;6.20;5.28;;;;;;;;;;5081747;28;20751;-61
2023/09/27 02:16:22;;;;;;;5.95;5.35;;;;;;;;;;5084160;28;20402;-63
2023/09/27 02:18:49;;;;;;;6.43;5.43;;;;;;;;;;5082663;28;20459;-62
2023/09/27 02:21:16;;;;;;;6.32;5.30;;;;;;;;;;5084679;28;20927;-63
2023/09/27 02:23:43;;;;;;;7.38;5.30;;;;;;;;;;5084674;28;20452;-63
2023/09/27 02:26:12;;;;;;;6.55;5.35;;;;;;;;;;5084835;28;20489;-63
2023/09/27 02:28:39;;;;;;;6.60;5.63;;;;;;;;;;5072062;28;20763;-64
2023/09/27 02:31:10;;;;;;;7.97;5.60;;;;;;;;;;5072161;28;20403;-63
2023/09/27 02:33:39;;;;;;;6.40;5.60;;;;;;;;;;5072130;28;20494;-63
2023/09/27 02:36:06;;;;;;;5.97;5.38;;;;;;;;;;5072121;28;20414;-64
2023/09/27 02:38:35;;;;;;;6.63;5.45;;;;;;;;;;5072047;28;20404;-63
2023/09/27 02:41:02;;;;;;;8.27;5.72;;;;;;;;;;5079338;28;20440;-63
2023/09/27 02:43:29;;;;;;;6.30;5.70;;;;;;;;;;5083487;28;20485;-62
2023/09/27 02:45:56;;;;;;;7.95;5.93;;;;;;;;;;5082902;28;20895;-63
2023/09/27 02:48:23;;;;;;;6.55;5.78;;;;;;;;;;5083143;28;20451;-62
2023/09/27 02:50:52;;;;;;;6.05;5.38;;;;;;;;;;5071765;28;20597;-64
2023/09/27 02:53:19;;;;;;;7.05;5.90;;;;;;;;;;5071176;28;20534;-62
2023/09/27 02:55:46;;;;;;;8.10;5.63;;;;;;;;;;5086574;28;20566;-64
2023/09/27 02:58:13;;;;;;;8.48;5.45;;;;;;;;;;5082018;28;20436;-62
2023/09/27 03:00:41;;;;;;;7.45;5.38;;;;;;;;;;5082971;28;20410;-63
2023/09/27 03:03:13;;;;;;;7.55;5.68;;;;;;;;;;5082907;28;20440;-62
2023/09/27 03:05:40;;;;;;;6.78;5.43;;;;;;;;;;5082674;28;20450;-63
2023/09/27 03:08:09;;;;;;;10.38;5.55;;;;;;;;;;5080476;28;20423;-64
2023/09/27 03:10:38;;;;;;;7.38;5.60;;;;;;;;;;5080430;28;20408;-63
2023/09/27 03:13:07;;;;;;;6.57;5.45;;;;;;;;;;5071222;28;20802;-63
2023/09/27 03:15:34;;;;;;;7.40;5.53;;;;;;;;;;5073335;28;20425;-62
2023/09/27 03:18:01;;;;;;;6.90;5.10;;;;;;;;;;5080048;28;20820;-64
2023/09/27 03:20:28;;;;;;;7.57;5.85;;;;;;;;;;5085469;28;20828;-63
2023/09/27 03:22:55;;;;;;;6.07;5.47;;;;;;;;;;5082926;28;20421;-61
2023/09/27 03:25:24;;;;;;;6.65;5.63;;;;;;;;;;5078487;28;20413;-62
2023/09/27 03:27:51;;;;;;;6.50;5.55;;;;;;;;;;5081307;28;20546;-63
2023/09/27 03:30:18;;;;;;;8.02;5.80;;;;;;;;;;5076972;28;20876;-64
2023/09/27 03:32:45;;;;;;;7.10;5.88;;;;;;;;;;5078279;28;20473;-63
2023/09/27 03:35:12;;;;;;;7.75;6.10;;;;;;;;;;5084821;28;20417;-64
2023/09/27 03:37:39;;;;;;;7.30;5.82;;;;;;;;;;5078277;28;20939;-63
2023/09/27 03:40:13;;;;;;;6.78;6.10;;;;;;;;;;5082027;28;20612;-62
2023/09/27 03:42:41;;;;;;;7.50;6.05;;;;;;;;;;5078721;28;20525;-62
2023/09/27 03:45:09;;;;;;;8.10;5.97;;;;;;;;;;5080348;28;20541;-59
2023/09/27 03:47:36;;;;;;;6.95;5.20;;;;;;;;;;5078129;28;20432;-62
2023/09/27 03:50:04;;;;;;;7.28;5.38;;;;;;;;;;5081810;28;20410;-61
2023/09/27 03:52:31;;;;;;;7.20;5.60;;;;;;;;;;5078628;28;20455;-61
2023/09/27 03:54:58;;;;;;;7.78;5.43;;;;;;;;;;5082224;28;20414;-63
2023/09/27 03:57:25;;;;;;;7.78;5.75;;;;;;;;;;5080080;28;20437;-61
2023/09/27 03:59:53;;;;;;;6.43;5.45;;;;;;;;;;5080436;28;20405;-62
2023/09/27 04:02:20;;;;;;;7.15;5.38;;;;;;;;;;5081626;28;20409;-62
2023/09/27 04:04:47;;;;;;;7.50;5.55;;;;;;;;;;5079195;28;20410;-62
2023/09/27 04:07:14;;;;;;;6.32;5.68;;;;;;;;;;5079675;28;20480;-62
2023/09/27 04:09:41;;;;;;;6.23;5.20;;;;;;;;;;5070544;28;20422;-62
2023/09/27 04:12:08;;;;;;;5.93;5.30;;;;;;;;;;5070457;28;20452;-63
2023/09/27 04:14:35;;;;;;;5.97;5.05;;;;;;;;;;5070313;28;20469;-62
2023/09/27 04:17:04;;;;;;;6.78;5.40;;;;;;;;;;5070316;28;20415;-62
2023/09/27 04:19:32;;;;;;;6.40;5.43;;;;;;;;;;5070453;28;20399;-63
2023/09/27 04:21:59;;;;;;;7.75;5.13;;;;;;;;;;5078014;28;20413;-62
2023/09/27 04:24:27;;;;;;;6.50;5.03;;;;;;;;;;5081708;28;20498;-62
2023/09/27 04:26:54;;;;;;;6.50;5.03;;;;;;;;;;5087841;28;20494;-63
2023/09/27 04:29:21;;;;;;;8.40;5.32;;;;;;;;;;5080243;28;20470;-61
2023/09/27 04:31:48;;;;;;;8.07;5.00;;;;;;;;;;5082162;28;20401;-62
2023/09/27 04:34:17;;;;;;;7.47;5.00;;;;;;;;;;5079774;28;20435;-60
2023/09/27 04:36:44;;;;;;;6.10;4.93;;;;;;;;;;5079432;28;20412;-62
2023/09/27 04:39:13;;;;;;;8.65;5.25;;;;;;;;;;5081155;28;20441;-63
2023/09/27 04:41:42;;;;;;;6.00;5.10;;;;;;;;;;5080793;28;20501;-62
2023/09/27 04:44:09;;;;;;;8.77;5.10;;;;;;;;;;5069725;28;20913;-62
2023/09/27 04:46:36;;;;;;;6.55;5.32;;;;;;;;;;5070103;28;20408;-61
2023/09/27 04:49:03;;;;;;;6.88;5.20;;;;;;;;;;5070264;28;20985;-62
2023/09/27 04:51:32;;;;;;;6.40;5.18;;;;;;;;;;5070005;28;20469;-62
2023/09/27 04:54:02;;;;;;;7.53;5.00;;;;;;;;;;5077581;28;20410;-62
2023/09/27 04:56:29;;;;;;;7.35;5.50;;;;;;;;;;5083848;28;20445;-62
2023/09/27 04:58:56;;;;;;;7.47;5.75;;;;;;;;;;5081274;28;20442;-62
2023/09/27 05:01:23;;;;;;;6.67;5.20;;;;;;;;;;5079437;28;20467;-62
2023/09/27 05:03:50;;;;;;;8.32;5.47;;;;;;;;;;5079446;28;20461;-61
2023/09/27 05:06:17;;;;;;;8.68;5.50;;;;;;;;;;5081524;28;20424;-63
2023/09/27 05:08:46;;;;;;;6.65;4.95;;;;;;;;;;5079818;28;20426;-62
2023/09/27 05:11:12;;;;;;;6.68;5.90;;;;;;;;;;5078739;28;20869;-63
2023/09/27 05:13:39;;;;;;;7.30;5.43;;;;;;;;;;5080378;28;20413;-63
2023/09/27 05:16:07;;;;;;;7.88;5.95;;;;;;;;;;5081540;28;20421;-61
2023/09/27 05:18:34;;;;;;;8.88;6.00;;;;;;;;;;5073715;28;20407;-63
2023/09/27 05:21:06;;;;;;;7.53;6.40;;;;;;;;;;5073947;28;20411;-62
2023/09/27 05:23:33;;;;;;;7.47;6.30;;;;;;;;;;5075211;28;20508;-62
2023/09/27 05:26:01;;;;;;;10.80;6.30;;;;;;;;;;5090586;28;20467;-63
2023/09/27 05:28:28;;;;;;;9.55;6.32;;;;;;;;;;5082233;28;20435;-63
2023/09/27 05:30:55;;;;;;;7.50;6.68;;;;;;;;;;5083727;28;20437;-63
2023/09/27 05:33:24;;;;;;;9.23;6.13;;;;;;;;;;5084837;28;20436;-63
2023/09/27 05:35:51;;;;;;;8.05;6.38;;;;;;;;;;5082723;28;20502;-63
2023/09/27 05:38:18;;;;;;;6.88;6.18;;;;;;;;;;5082611;28;21089;-63
2023/09/27 05:40:45;;;;;;;8.50;6.15;;;;;;;;;;5085938;28;20412;-63
2023/09/27 05:43:14;;;;;;;7.50;6.65;;;;;;;;;;5082694;28;20414;-63
2023/09/27 05:45:41;;;;;;;8.88;6.70;;;;;;;;;;5084396;28;20530;-62
2023/09/27 05:48:08;;;;;;;7.67;6.70;;;;;;;;;;5082780;28;20925;-63
2023/09/27 05:50:35;;;;;;;9.23;6.90;;;;;;;;;;5081937;28;20459;-63
2023/09/27 05:53:02;;;;;;;10.17;6.53;;;;;;;;;;5083665;28;20949;-63
2023/09/27 05:55:29;;;;;;;7.18;6.05;;;;;;;;;;5086055;28;20486;-63
2023/09/27 05:57:56;;;;;;;7.40;6.70;;;;;;;;;;5084836;28;20440;-63
2023/09/27 06:00:26;;;;;;;7.32;5.70;;;;;;;;;;5082716;28;20890;-63
2023/09/27 06:02:53;;;;;;;7.05;5.45;;;;;;;;;;5081701;28;20942;-63
2023/09/27 06:05:21;;;;;;;6.93;5.57;;;;;;;;;;5082842;28;20409;-63
2023/09/27 06:07:48;;;;;;;7.13;6.20;;;;;;;;;;5084028;28;20535;-62
2023/09/27 06:10:16;;;;;;;10.02;6.38;;;;;;;;;;5081784;28;20407;-62
2023/09/27 06:12:43;;;;;;;7.90;6.25;;;;;;;;;;5082032;28;20426;-62
2023/09/27 06:15:12;;;;;;;8.27;6.10;;;;;;;;;;5083750;28;20937;-62
2023/09/27 06:17:40;;;;;;;6.50;5.80;;;;;;;;;;5082752;28;20419;-62
2023/09/27 06:20:11;;;;;;;7.90;6.10;;;;;;;;;;5081469;28;20400;-63
2023/09/27 06:22:39;;;;;;;7.82;6.63;;;;;;;;;;5082488;28;20471;-63
2023/09/27 06:25:06;;;;;;;8.88;6.25;;;;;;;;;;5085911;28;20424;-61
2023/09/27 06:27:34;;;;;;;6.00;5.20;;;;;;;;;;5081234;28;20419;-63
2023/09/27 06:30:03;;;;;;;7.07;5.40;;;;;;;;;;5080628;28;20466;-63
2023/09/27 06:32:30;;;;;;;8.25;6.07;;;;;;;;;;5082725;28;20414;-62
2023/09/27 06:34:59;;;;;;;6.85;5.60;;;;;;;;;;5083266;28;20409;-63
2023/09/27 06:37:26;;;;;;;9.40;6.22;;;;;;;;;;5080927;28;20404;-62
2023/09/27 06:39:53;;;;;;;6.30;5.70;;;;;;;;;;5081738;28;20412;-62
2023/09/27 06:42:21;;;;;;;7.60;5.63;;;;;;;;;;5083340;28;20414;-64
2023/09/27 06:44:48;;;;;;;7.35;4.70;;;;;;;;;;5081707;28;20904;-64
2023/09/27 06:47:15;;;;;;;6.43;5.07;;;;;;;;;;5080907;28;20411;-64
2023/09/27 06:49:42;;;;;;;6.38;4.72;;;;;;;;;;5082759;28;20425;-62
2023/09/27 06:52:11;;;;;;;5.40;4.75;;;;;;;;;;5079398;28;20445;-63
2023/09/27 06:54:38;;;;;;;5.70;5.10;;;;;;;;;;5085434;28;20411;-63
2023/09/27 06:57:05;;;;;;;5.75;5.03;;;;;;;;;;5088887;28;20819;-64
2023/09/27 06:59:32;;;;;;;6.13;5.47;;;;;;;;;;5082373;28;20407;-63
2023/09/27 07:01:59;;;;;;;8.27;5.90;;;;;;;;;;5082238;28;20410;-62
2023/09/27 07:04:27;;;;;;;6.50;5.03;;;;;;;;;;5082937;28;20414;-63
2023/09/27 07:06:54;;;;;;;6.75;5.13;;;;;;;;;;5081566;28;20418;-61
2023/09/27 07:09:22;;;;;;;8.07;5.38;;;;;;;;;;5085210;28;20426;-62
2023/09/27 07:11:49;;;;;;;8.23;5.53;;;;;;;;;;5088457;28;20452;-61
2023/09/27 07:14:19;;;;;;;6.63;5.45;;;;;;;;;;5084737;28;20410;-60
2023/09/27 07:16:46;;;;;;;6.82;5.43;;;;;;;;;;5079801;28;20422;-61
2023/09/27 07:19:15;;;;;;;6.50;5.60;;;;;;;;;;5082672;28;20437;-62
2023/09/27 07:21:42;;;;;;;9.00;5.80;;;;;;;;;;5085998;28;20937;-61
2023/09/27 07:24:10;;;;;;;9.20;5.72;;;;;;;;;;5087113;28;20413;-61
2023/09/27 07:26:41;;;;;;;7.43;5.55;;;;;;;;;;5084937;28;20499;-62
2023/09/27 07:29:08;;;;;;;7.07;5.60;;;;;;;;;;5073928;28;20444;-61
2023/09/27 07:31:36;;;;;;;7.30;5.85;;;;;;;;;;5083120;28;20513;-63
2023/09/27 07:34:03;;;;;;;6.18;5.38;;;;;;;;;;5078799;28;20418;-63
2023/09/27 07:36:30;;;;;;;7.68;5.80;;;;;;;;;;5080333;28;20773;-63
2023/09/27 07:38:59;;;;;;;8.63;5.28;;;;;;;;;;5081309;28;20455;-63
2023/09/27 07:41:26;;;;;;;7.00;4.97;;;;;;;;;;5079342;28;20894;-63
2023/09/27 07:43:55;;;;;;;6.90;5.10;;;;;;;;;;5078943;28;20465;-61
2023/09/27 07:46:22;;;;;;;7.35;5.45;;;;;;;;;;5085690;28;20434;-64
2023/09/27 07:48:49;;;;;;;7.15;5.28;;;;;;;;;;5079081;28;20427;-65
2023/09/27 07:51:18;;;;;;;6.32;5.35;;;;;;;;;;5081432;28;20406;-65
2023/09/27 07:53:45;;;;;;;6.50;5.57;;;;;;;;;;5080486;28;20445;-65
2023/09/27 07:56:19;;;;;;;7.55;5.25;;;;;;;;;;5083075;28;20431;-67
2023/09/27 07:58:47;;;;;;;8.52;5.88;;;;;;;;;;5080892;28;20404;-64
2023/09/27 08:01:20;;;;;;;8.55;4.82;;;;;;;;;;5078605;28;20407;-64
2023/09/27 08:03:47;;;;;;;7.53;4.80;;;;;;;;;;5078580;28;20415;-65
2023/09/27 08:06:16;;;;;;;6.07;5.10;;;;;;;;;;5080550;28;20425;-65
2023/09/27 08:08:43;;;;;;;6.63;4.82;;;;;;;;;;5078861;28;20774;-65
2023/09/27 08:11:13;;;;;;;6.28;5.32;;;;;;;;;;5081668;28;20935;-65
2023/09/27 08:13:40;;;;;;;7.83;4.57;;;;;;;;;;5080760;28;20424;-62
2023/09/27 08:16:07;;;;;;;6.80;4.93;;;;;;;;;;5078590;28;20411;-65
2023/09/27 08:18:37;;;;;;;7.55;5.18;;;;;;;;;;5079841;28;20822;-64
2023/09/27 08:21:04;;;;;;;7.53;4.87;;;;;;;;;;5080615;28;20418;-64
2023/09/27 08:23:31;;;;;;;6.75;4.88;;;;;;;;;;5079164;28;20925;-63
2023/09/27 08:25:58;;;;;;;7.30;4.90;;;;;;;;;;5081832;28;20418;-63
2023/09/27 08:28:25;;;;;;;6.28;4.70;;;;;;;;;;5078317;28;20898;-67
2023/09/27 08:30:52;;;;;;;7.13;4.20;;;;;;;;;;5079344;28;20462;-64
2023/09/27 08:33:20;;;;;;;6.00;4.50;;;;;;;;;;5080782;28;20819;-65
2023/09/27 08:35:53;;;;;;;8.70;4.28;;;;;;;;;;5079325;28;20415;-66
2023/09/27 08:38:20;;;;;;;5.00;4.30;;;;;;;;;;5078485;28;20552;-64
2023/09/27 08:40:47;;;;;;;7.55;4.30;;;;;;;;;;5079741;28;20413;-63
2023/09/27 08:43:15;;;;;;;6.63;4.70;;;;;;;;;;5080608;28;20841;-64
2023/09/27 08:45:45;;;;;;;7.10;4.45;;;;;;;;;;5076662;28;20418;-64
2023/09/27 08:48:20;;;;;;;5.63;4.60;;;;;;;;;;5080621;28;20840;-65
2023/09/27 08:50:47;;;;;;;5.38;4.20;;;;;;;;;;5079845;28;20785;-64
2023/09/27 08:53:15;;;;;;;9.23;4.40;;;;;;;;;;5081800;28;20407;-64
2023/09/27 08:55:45;;;;;;;6.93;4.22;;;;;;;;;;5085762;28;20785;-63
2023/09/27 08:58:13;;;;;;;6.47;4.05;;;;;;;;;;5085612;28;20414;-64
2023/09/27 09:00:41;;;;;;;6.80;4.30;;;;;;;;;;5082564;28;20413;-65
2023/09/27 09:03:08;;;;;;;5.90;4.18;;;;;;;;;;5082586;28;20418;-65
2023/09/27 09:05:35;;;;;;;6.32;4.50;;;;;;;;;;5073181;28;20966;-65
2023/09/27 09:08:04;;;;;;;5.10;3.92;;;;;;;;;;5072745;28;20419;-61
2023/09/27 09:10:33;;;;;;;5.55;4.13;;;;;;;;;;5072528;28;20426;-64
2023/09/27 09:13:00;;;;;;;5.88;3.90;;;;;;;;;;5072817;28;20412;-64
2023/09/27 09:15:28;;;;;;;5.55;4.05;;;;;;;;;;5080648;28;20407;-64
2023/09/27 09:17:57;;;;;;;6.57;4.07;;;;;;;;;;5082892;28;20422;-64
2023/09/27 09:20:31;;;;;;;4.97;4.07;;;;;;;;;;5087679;28;20410;-64
2023/09/27 09:23:03;;;;;;;5.35;4.10;;;;;;;;;;5085138;28;20401;-65
2023/09/27 09:25:31;;;;;;;7.43;6.07;;;;;;;;;;5088437;28;20459;-65
2023/09/27 09:28:07;;;;;;;9.40;5.50;;;;;;;;;;5083518;28;20425;-64
2023/09/27 09:30:36;;;;;;;5.68;3.95;;;;;;;;;;5086786;28;20528;-64
2023/09/27 09:33:03;;;;;;;5.57;3.57;;;;;;;;;;5089876;28;20492;-64
2023/09/27 09:35:31;;;;;;;6.60;3.70;;;;;;;;;;5087603;28;20488;-64
2023/09/27 09:37:59;;;;;;;5.15;3.30;;;;;;;;;;5083169;28;20406;-64
2023/09/27 09:40:26;;;;;;;7.43;3.57;;;;;;;;;;5086636;28;20438;-66
2023/09/27 09:42:53;;;;;;;5.05;3.83;;;;;;;;;;5087119;28;20473;-64
2023/09/27 09:45:21;;;;;;;6.15;3.22;;;;;;;;;;5087278;28;20807;-65
2023/09/27 09:47:48;;;;;;;4.30;3.50;;;;;;;;;;5084164;28;20469;-65
2023/09/27 09:50:17;;;;;;;4.15;3.22;;;;;;;;;;5086692;28;20938;-66
2023/09/27 09:52:52;;;;;;;4.07;3.08;;;;;;;;;;5083286;28;20987;-65
2023/09/27 09:55:21;;;;;;;4.53;3.20;;;;;;;;;;5089539;28;20437;-64
2023/09/27 09:57:49;;;;;;;3.72;2.90;;;;;;;;;;5081713;28;20416;-65
2023/09/27 10:00:18;;;;;;;5.38;3.10;;;;;;;;;;5080955;28;20465;-64
2023/09/27 10:02:50;;;;;;;4.65;2.90;;;;;;;;;;5081903;28;20996;-65
2023/09/27 10:05:19;;;;;;;3.97;2.90;;;;;;;;;;5083462;28;20433;-64
2023/09/27 10:07:46;;;;;;;3.90;3.03;;;;;;;;;;5082216;28;20434;-63
2023/09/27 10:10:14;;;;;;;6.82;3.28;;;;;;;;;;5080647;28;20424;-64
2023/09/27 10:12:41;;;;;;;4.30;3.00;;;;;;;;;;5080983;28;20491;-63
2023/09/27 10:15:09;;;;;;;6.07;3.10;;;;;;;;;;5081210;28;20453;-63
2023/09/27 10:17:36;;;;;;;4.32;2.83;;;;;;;;;;5083297;28;20410;-64
2023/09/27 10:20:13;;;;;;;4.97;2.80;;;;;;;;;;5081894;28;20411;-64
2023/09/27 10:22:41;;;;;;;3.85;3.00;;;;;;;;;;5071328;28;20403;-62
2023/09/27 10:25:23;;;;;;;3.70;3.17;;;;;;;;;;5083733;28;20497;-64
2023/09/27 10:28:06;;;;;;;4.43;3.00;;;;;;;;;;5082333;28;20439;-64
2023/09/27 10:30:59;;;;;;;4.20;2.95;;;;;;;;;;5082393;28;20475;-63
2023/09/27 10:33:33;;;;;;;4.80;2.95;;;;;;;;;;5071268;28;20403;-64
2023/09/27 10:36:18;;;;;;;4.05;3.00;;;;;;;;;;5071313;28;20412;-63
2023/09/27 10:41:44;;;;;;;7.20;3.20;;;;;;;;;;5119082;27;20706;-65
2023/09/27 10:44:12;;;;;;;5.57;2.90;;;;;;;;;;5095380;28;20464;-65
2023/09/27 10:46:42;;;;;;;5.78;3.67;;;;;;;;;;5087811;28;20418;-65
2023/09/27 10:49:09;;;;;;;4.70;3.58;;;;;;;;;;5087590;28;20461;-66
2023/09/27 10:51:37;;;;;;;7.38;3.50;;;;;;;;;;5087354;28;20411;-67
2023/09/27 10:54:08;;;;;;;6.38;3.22;;;;;;;;;;5092996;28;20413;-67
2023/09/27 10:56:35;;;;;;;6.18;3.90;;;;;;;;;;5091989;28;20415;-66
2023/09/27 10:59:03;;;;;;;4.57;3.10;;;;;;;;;;5096585;28;20406;-66
2023/09/27 11:01:31;;;;;;;4.28;2.80;;;;;;;;;;5095612;28;20785;-64
2023/09/27 11:03:58;;;;;;;6.10;2.80;;;;;;;;;;5097056;28;20405;-65
2023/09/27 11:06:25;;;;;;;5.28;2.90;;;;;;;;;;5098583;28;20409;-63
2023/09/27 11:08:52;;;;;;;4.70;3.15;;;;;;;;;;5096341;28;20861;-65
2023/09/27 11:11:19;;;;;;;4.90;3.10;;;;;;;;;;5096214;28;20402;-65
2023/09/27 11:13:47;;;;;;;4.38;3.15;;;;;;;;;;5098381;28;20512;-64
2023/09/27 11:16:18;;;;;;;6.10;3.30;;;;;;;;;;5096801;28;20411;-65
2023/09/27 11:18:45;;;;;;;3.58;2.85;;;;;;;;;;5095555;28;20418;-64
2023/09/27 11:21:13;;;;;;;4.03;2.55;;;;;;;;;;5096799;28;20428;-64
2023/09/27 11:23:52;;;;;;;5.57;2.88;;;;;;;;;;5099392;28;20413;-64
2023/09/27 11:26:19;;;;;;;3.97;2.70;;;;;;;;;;5092874;28;20498;-64
2023/09/27 11:28:46;;;;;;;3.20;2.50;;;;;;;;;;5097840;28;20883;-64
2023/09/27 11:31:23;;;;;;;4.50;2.80;;;;;;;;;;5096701;28;20407;-64
2023/09/27 11:33:50;;;;;;;3.80;2.80;;;;;;;;;;5086000;28;20403;-65
2023/09/27 11:36:17;;;;;;;3.95;2.60;;;;;;;;;;5086391;28;20895;-65
2023/09/27 11:38:49;;;;;;;5.22;2.60;;;;;;;;;;5086751;28;20472;-65
2023/09/27 11:41:16;;;;;;;4.65;2.97;;;;;;;;;;5103950;28;20453;-70
2023/09/27 11:43:43;;;;;;;5.20;2.93;;;;;;;;;;5114616;28;20405;-64
2023/09/27 11:46:11;;;;;;;3.47;2.63;;;;;;;;;;5116192;28;20511;-64
2023/09/27 11:48:40;;;;;;;3.20;2.55;;;;;;;;;;5117977;28;20408;-64
2023/09/27 11:51:07;;;;;;;5.13;2.70;;;;;;;;;;5113070;28;20481;-68
2023/09/27 11:53:36;;;;;;;3.00;2.70;;;;;;;;;;5105428;28;20465;-67
2023/09/27 11:56:03;;;;;;;3.90;2.80;;;;;;;;;;5103887;28;20400;-66
2023/09/27 11:58:30;;;;;;;4.20;2.80;;;;;;;;;;5100033;28;20410;-66
2023/09/27 12:00:57;;;;;;;4.10;2.90;;;;;;;;;;5103576;28;20470;-67
2023/09/27 12:03:25;;;;;;;4.13;3.00;;;;;;;;;;5102669;28;20455;-65
2023/09/27 12:05:53;;;;;;;4.00;2.80;;;;;;;;;;5101330;28;20510;-66
2023/09/27 12:08:20;;;;;;;4.28;2.90;;;;;;;;;;5102904;28;20466;-64
2023/09/27 12:10:47;;;;;;;3.38;2.70;;;;;;;;;;5103787;28;20400;-64
2023/09/27 12:13:15;;;;;;;4.60;2.85;;;;;;;;;;5104396;28;20412;-63
2023/09/27 12:15:42;;;;;;;6.47;2.90;;;;;;;;;;5098842;28;20413;-64
2023/09/27 12:18:09;;;;;;;5.10;2.85;;;;;;;;;;5104276;28;20404;-63
2023/09/27 12:20:39;;;;;;;3.55;2.58;;;;;;;;;;5103320;28;20971;-64
2023/09/27 12:23:08;;;;;;;3.78;2.90;;;;;;;;;;5101975;28;20402;-69
2023/09/27 12:25:36;;;;;;;4.07;3.03;;;;;;;;;;5099326;28;20884;-65
2023/09/27 12:28:03;;;;;;;6.45;2.70;;;;;;;;;;5104338;28;20499;-65
2023/09/27 12:30:30;;;;;;;4.28;2.80;;;;;;;;;;5102372;28;20818;-68
2023/09/27 12:32:57;;;;;;;5.28;2.90;;;;;;;;;;5101418;28;20405;-65
2023/09/27 12:35:24;;;;;;;4.30;2.80;;;;;;;;;;5092500;28;20401;-65
2023/09/27 12:37:51;;;;;;;4.07;2.60;;;;;;;;;;5092805;28;20409;-65
2023/09/27 12:40:20;;;;;;;2.90;2.20;;;;;;;;;;5092361;28;20426;-65
2023/09/27 12:42:47;;;;;;;3.00;2.35;;;;;;;;;;5092466;28;20467;-66
2023/09/27 12:45:14;;;;;;;5.68;2.13;;;;;;;;;;5091960;28;20416;-65
2023/09/27 12:47:41;;;;;;;3.40;2.20;;;;;;;;;;5102163;28;20402;-64
2023/09/27 12:50:09;;;;;;;2.50;2.05;;;;;;;;;;5101912;28;20437;-65
2023/09/27 12:52:36;;;;;;;3.03;2.28;;;;;;;;;;5103737;28;20405;-65
2023/09/27 12:55:05;;;;;;;4.15;2.13;;;;;;;;;;5100299;28;20412;-65
2023/09/27 12:57:33;;;;;;;3.05;2.20;;;;;;;;;;5099698;28;20408;-65
2023/09/27 13:00:00;;;;;;;2.45;2.10;;;;;;;;;;5103005;28;20998;-65
2023/09/27 13:02:27;;;;;;;3.70;2.40;;;;;;;;;;5103185;28;20415;-65
2023/09/27 13:04:54;;;;;;;3.00;2.10;;;;;;;;;;5100323;28;20775;-65
2023/09/27 13:07:21;;;;;;;3.35;2.33;;;;;;;;;;5101189;28;20409;-66
2023/09/27 13:09:48;;;;;;;2.70;2.10;;;;;;;;;;5103122;28;20461;-65
2023/09/27 13:12:15;;;;;;;2.63;1.88;;;;;;;;;;5102013;28;21124;-66
2023/09/27 13:14:44;;;;;;;3.00;2.20;;;;;;;;;;5100650;28;20409;-65
2023/09/27 13:17:11;;;;;;;4.10;2.23;;;;;;;;;;5102412;28;20404;-65
2023/09/27 13:19:38;;;;;;;2.40;1.90;;;;;;;;;;5102875;28;20491;-65
2023/09/27 13:22:06;;;;;;;2.75;2.13;;;;;;;;;;5091569;28;20421;-65
2023/09/27 13:24:33;;;;;;;4.00;2.15;;;;;;;;;;5097353;28;21024;-66
2023/09/27 13:27:00;;;;;;;4.03;2.25;;;;;;;;;;5102524;28;20410;-65
2023/09/27 13:29:27;;;;;;;2.80;2.10;;;;;;;;;;5101869;28;20408;-66
2023/09/27 13:31:56;;;;;;;2.55;2.05;;;;;;;;;;5103211;28;20929;-66
2023/09/27 13:34:23;;;;;;;2.40;2.03;;;;;;;;;;5100963;28;20446;-65
2023/09/27 13:36:50;;;;;;;2.50;2.15;;;;;;;;;;5100491;28;20822;-65
2023/09/27 13:39:17;;;;;;;2.30;1.98;;;;;;;;;;5091232;28;20436;-65
2023/09/27 13:41:45;;;;;;;2.50;2.07;;;;;;;;;;5091487;28;20490;-64
2023/09/27 13:44:13;;;;;;;2.35;2.15;;;;;;;;;;5091753;28;20443;-65
2023/09/27 13:46:40;;;;;;;3.65;2.30;;;;;;;;;;5103581;27;20412;-61
2023/09/27 13:49:08;;;;;;;2.30;1.98;;;;;;;;;;5100806;28;20817;-63
2023/09/27 13:51:36;;;;;;;4.05;2.20;;;;;;;;;;5098469;28;20414;-63
2023/09/27 13:54:03;;;;;;;2.92;2.20;;;;;;;;;;5102300;28;20886;-61
2023/09/27 13:56:30;;;;;;;3.53;2.03;;;;;;;;;;5095306;28;20943;-62
2023/09/27 13:58:57;;;;;;;3.58;2.10;;;;;;;;;;5101301;28;20523;-61
2023/09/27 14:01:25;;;;;;;2.30;1.90;;;;;;;;;;5099622;28;20426;-61
2023/09/27 14:03:52;;;;;;;3.20;2.03;;;;;;;;;;5100702;28;20444;-61
2023/09/27 14:06:21;;;;;;;2.20;1.95;;;;;;;;;;5101557;28;20408;-62
2023/09/27 14:08:48;;;;;;;4.53;2.20;;;;;;;;;;5091033;28;20406;-62
2023/09/27 14:11:15;;;;;;;2.30;1.75;;;;;;;;;;5090754;28;20434;-62
2023/09/27 14:13:43;;;;;;;3.85;2.00;;;;;;;;;;5098763;28;20410;-64
2023/09/27 14:16:10;;;;;;;3.50;2.00;;;;;;;;;;5101962;28;20412;-65
2023/09/27 14:18:37;;;;;;;3.45;2.08;;;;;;;;;;5103007;28;20419;-64
2023/09/27 14:21:04;;;;;;;2.83;2.10;;;;;;;;;;5104548;28;20511;-63
2023/09/27 14:23:33;;;;;;;3.20;1.98;;;;;;;;;;5102020;28;20459;-64
2023/09/27 14:26:00;;;;;;;3.35;2.00;;;;;;;;;;5096482;28;20501;-65
2023/09/27 14:28:27;;;;;;;3.60;2.17;;;;;;;;;;5098421;28;20420;-65
2023/09/27 14:30:54;;;;;;;4.50;2.17;;;;;;;;;;5103540;28;20528;-63
2023/09/27 14:33:21;;;;;;;2.70;2.17;;;;;;;;;;5100440;28;20404;-63
2023/09/27 14:35:48;;;;;;;3.90;2.30;;;;;;;;;;5102037;28;20453;-63
2023/09/27 14:38:17;;;;;;;4.32;2.42;;;;;;;;;;5102958;28;20951;-63
2023/09/27 14:40:45;;;;;;;3.53;2.22;;;;;;;;;;5097909;28;20497;-61
2023/09/27 14:43:13;;;;;;;3.22;2.30;;;;;;;;;;5098739;28;20947;-63
2023/09/27 14:45:40;;;;;;;3.13;2.40;;;;;;;;;;5099950;28;20561;-63
2023/09/27 14:48:08;;;;;;;3.17;2.28;;;;;;;;;;5101849;28;20415;-63
2023/09/27 14:50:35;;;;;;;4.35;2.35;;;;;;;;;;5100264;28;20413;-65